createdAt,value
2022-12-23T00:00:08.883Z,27.60
2022-12-23T00:02:41.147Z,27.64
2022-12-23T00:05:16.170Z,27.65
2022-12-23T00:07:47.092Z,27.65
2022-12-23T00:10:17.693Z,27.66
2022-12-23T00:13:06.788Z,27.68
2022-12-23T00:15:38.583Z,27.71
2022-12-23T00:18:09.554Z,27.71
2022-12-23T00:20:41.001Z,27.69
2022-12-23T00:23:12.045Z,27.71
2022-12-23T00:25:47.312Z,27.73
2022-12-23T00:28:20.826Z,27.73
2022-12-23T00:30:56.350Z,27.78
2022-12-23T00:33:29.548Z,27.77
2022-12-23T00:36:01.491Z,27.82
2022-12-23T00:38:50.097Z,27.76
2022-12-23T00:41:40.313Z,27.77
2022-12-23T00:44:11.097Z,27.80
2022-12-23T00:46:42.343Z,27.84
2022-12-23T00:49:35.925Z,27.88
2022-12-23T00:52:08.953Z,27.90
2022-12-23T00:54:40.481Z,27.94
2022-12-23T00:57:11.124Z,27.94
2022-12-23T00:59:41.787Z,27.99
2022-12-23T01:02:32.263Z,28.02
2022-12-23T01:05:21.222Z,28.07
2022-12-23T01:07:53.971Z,28.09
2022-12-23T01:10:27.716Z,28.15
2022-12-23T01:13:01.097Z,28.18
2022-12-23T01:15:32.233Z,28.22
2022-12-23T01:18:03.917Z,28.27
2022-12-23T01:20:34.846Z,28.36
2022-12-23T01:23:05.598Z,28.40
2022-12-23T01:25:36.104Z,28.39
2022-12-23T01:28:07.119Z,28.44
2022-12-23T01:30:39.628Z,28.51
2022-12-23T01:33:10.412Z,28.49
2022-12-23T01:35:41.578Z,28.53
2022-12-23T01:38:12.269Z,28.57
2022-12-23T01:40:46.044Z,28.42
2022-12-23T01:43:21.120Z,28.53
2022-12-23T01:45:54.407Z,28.67
2022-12-23T01:48:27.586Z,28.67
2022-12-23T01:51:04.338Z,28.70
2022-12-23T01:53:40.365Z,28.76
2022-12-23T01:56:24.938Z,28.77
2022-12-23T01:59:02.237Z,28.84
2022-12-23T02:01:51.574Z,28.92
2022-12-23T02:04:25.355Z,28.95
2022-12-23T02:07:14.342Z,28.89
2022-12-23T02:09:45.662Z,28.97
2022-12-23T02:12:35.039Z,29.03
2022-12-23T02:15:35.252Z,29.09
2022-12-23T02:18:24.312Z,29.07
2022-12-23T02:21:12.766Z,29.15
2022-12-23T02:23:43.057Z,29.17
2022-12-23T02:26:24.953Z,29.28
2022-12-23T02:29:24.331Z,29.39
2022-12-23T02:32:03.764Z,29.28
2022-12-23T02:34:58.610Z,29.40
2022-12-23T02:38:05.562Z,29.49
2022-12-23T02:40:48.387Z,29.59
2022-12-23T02:43:41.199Z,29.57
2022-12-23T02:46:22.271Z,29.63
2022-12-23T02:49:16.884Z,29.69
2022-12-23T02:51:53.577Z,29.77
2022-12-23T02:54:34.295Z,29.82
2022-12-23T02:57:09.469Z,29.83
2022-12-23T02:59:46.822Z,29.83
2022-12-23T03:02:17.536Z,29.82
2022-12-23T03:04:48.433Z,29.83
2022-12-23T03:07:43.835Z,29.83
2022-12-23T03:10:36.189Z,29.86
2022-12-23T03:13:40.106Z,29.88
2022-12-23T03:16:22.437Z,29.94
2022-12-23T03:19:14.915Z,30.07
2022-12-23T03:22:23.108Z,30.19
2022-12-23T03:25:12.315Z,30.12
2022-12-23T03:28:23.116Z,30.31
2022-12-23T03:30:56.373Z,30.30
2022-12-23T03:33:35.828Z,30.32
2022-12-23T03:36:17.455Z,30.42
2022-12-23T03:38:48.760Z,30.39
2022-12-23T03:41:23.481Z,30.38
2022-12-23T03:44:04.757Z,30.48
2022-12-23T03:46:40.406Z,30.59
2022-12-23T03:49:16.451Z,30.57
2022-12-23T03:51:58.111Z,30.67
2022-12-23T03:54:32.917Z,30.62
2022-12-23T03:57:05.911Z,30.62
2022-12-23T03:59:39.880Z,30.67
2022-12-23T04:02:35.744Z,30.70
2022-12-23T04:05:23.629Z,30.66
2022-12-23T04:08:02.906Z,30.67
2022-12-23T04:10:33.796Z,30.68
2022-12-23T04:13:04.490Z,30.74
2022-12-23T04:15:37.969Z,30.76
2022-12-23T04:18:10.606Z,30.80
2022-12-23T04:20:41.729Z,30.82
2022-12-23T04:23:12.962Z,30.87
2022-12-23T04:25:44.261Z,30.94
2022-12-23T04:28:19.164Z,30.99
2022-12-23T04:30:50.522Z,31.01
2022-12-23T04:33:21.440Z,31.08
2022-12-23T04:35:52.109Z,31.14
2022-12-23T04:38:23.141Z,31.28
2022-12-23T04:40:53.789Z,31.30
2022-12-23T04:43:24.365Z,31.35
2022-12-23T04:45:54.909Z,31.36
2022-12-23T04:48:25.685Z,31.42
2022-12-23T04:51:03.836Z,31.45
2022-12-23T04:53:38.030Z,31.47
2022-12-23T04:56:09.566Z,31.45
2022-12-23T04:58:40.039Z,31.55
2022-12-23T05:01:14.330Z,31.49
2022-12-23T05:03:45.160Z,31.56
2022-12-23T05:06:15.772Z,31.60
2022-12-23T05:08:46.407Z,31.60
2022-12-23T05:11:17.756Z,31.67
2022-12-23T05:13:49.098Z,31.70
2022-12-23T05:16:19.893Z,31.78
2022-12-23T05:18:53.110Z,31.85
2022-12-23T05:21:23.826Z,31.88
2022-12-23T05:23:54.708Z,31.88
2022-12-23T05:26:25.724Z,31.89
2022-12-23T05:28:56.855Z,31.98
2022-12-23T05:31:27.544Z,31.94
2022-12-23T05:34:06.353Z,32.06
2022-12-23T05:36:37.195Z,32.04
2022-12-23T05:39:08.901Z,31.99
2022-12-23T05:41:40.487Z,31.99
2022-12-23T05:44:10.790Z,32.02
2022-12-23T05:46:43.773Z,31.99
2022-12-23T05:49:14.546Z,32.14
2022-12-23T05:51:45.143Z,32.19
2022-12-23T05:54:15.987Z,32.35
2022-12-23T05:56:46.660Z,32.44
2022-12-23T05:59:18.487Z,32.50
2022-12-23T06:01:49.742Z,32.57
2022-12-23T06:04:20.452Z,32.62
2022-12-23T06:06:50.805Z,32.52
2022-12-23T06:09:24.277Z,32.47
2022-12-23T06:11:54.825Z,32.39
2022-12-23T06:14:29.090Z,32.52
2022-12-23T06:17:00.288Z,32.56
2022-12-23T06:19:30.899Z,32.44
2022-12-23T06:22:02.187Z,32.38
2022-12-23T06:24:33.691Z,32.32
2022-12-23T06:27:04.018Z,32.25
2022-12-23T06:29:36.862Z,32.22
2022-12-23T06:32:08.272Z,32.20
2022-12-23T06:34:39.283Z,32.18
2022-12-23T06:37:09.617Z,32.10
2022-12-23T06:39:40.119Z,32.06
2022-12-23T06:42:10.651Z,31.95
2022-12-23T06:44:42.106Z,31.88
2022-12-23T06:47:12.990Z,31.79
2022-12-23T06:49:43.608Z,31.73
2022-12-23T06:52:13.937Z,31.73
2022-12-23T06:54:44.529Z,31.72
2022-12-23T06:57:14.808Z,31.70
2022-12-23T06:59:45.640Z,31.61
2022-12-23T07:02:16.200Z,31.61
2022-12-23T07:04:47.001Z,31.57
2022-12-23T07:07:18.507Z,31.54
2022-12-23T07:09:49.085Z,31.51
2022-12-23T07:12:20.375Z,31.47
2022-12-23T07:14:51.035Z,31.41
2022-12-23T07:17:24.357Z,31.36
2022-12-23T07:19:54.911Z,31.34
2022-12-23T07:22:25.732Z,31.30
2022-12-23T07:24:56.038Z,31.25
2022-12-23T07:27:26.825Z,31.22
2022-12-23T07:29:57.245Z,31.18
2022-12-23T07:32:28.162Z,31.14
2022-12-23T07:34:58.783Z,31.14
2022-12-23T07:37:29.572Z,31.16
2022-12-23T07:40:08.267Z,31.08
2022-12-23T07:42:47.269Z,31.08
2022-12-23T07:45:20.901Z,31.06
2022-12-23T07:47:58.096Z,31.02
2022-12-23T07:50:34.032Z,31.03
2022-12-23T07:53:04.897Z,30.98
2022-12-23T07:55:35.644Z,30.97
2022-12-23T07:58:06.471Z,30.95
2022-12-23T08:00:37.360Z,30.90
2022-12-23T08:03:09.753Z,30.91
2022-12-23T08:05:40.421Z,30.87
2022-12-23T08:08:11.271Z,30.83
2022-12-23T08:10:48.053Z,30.79
2022-12-23T08:13:19.163Z,30.74
2022-12-23T08:15:50.236Z,30.75
2022-12-23T08:18:20.933Z,30.67
2022-12-23T08:21:04.258Z,30.63
2022-12-23T08:23:36.934Z,30.61
2022-12-23T08:26:10.751Z,30.55
2022-12-23T08:28:46.515Z,30.48
2022-12-23T08:31:30.001Z,30.52
2022-12-23T08:34:02.044Z,30.45
2022-12-23T08:36:34.952Z,30.45
2022-12-23T08:39:09.019Z,30.43
2022-12-23T08:41:42.781Z,30.40
2022-12-23T08:44:14.204Z,30.39
2022-12-23T08:46:46.183Z,30.40
2022-12-23T08:49:17.468Z,30.33
2022-12-23T08:51:48.507Z,30.27
2022-12-23T08:54:21.280Z,30.24
2022-12-23T08:56:52.320Z,30.19
2022-12-23T08:59:22.778Z,30.16
2022-12-23T09:01:53.517Z,30.13
2022-12-23T09:04:24.185Z,30.12
2022-12-23T09:06:54.891Z,30.09
2022-12-23T09:09:25.503Z,30.07
2022-12-23T09:11:56.568Z,30.08
2022-12-23T09:14:27.286Z,30.05
2022-12-23T09:16:58.429Z,29.98
2022-12-23T09:19:29.083Z,30.05
2022-12-23T09:22:00.227Z,29.95
2022-12-23T09:24:31.541Z,29.92
2022-12-23T09:27:02.473Z,29.89
2022-12-23T09:29:33.785Z,29.93
2022-12-23T09:32:04.652Z,29.88
2022-12-23T09:34:35.567Z,29.80
2022-12-23T09:37:07.012Z,29.82
2022-12-23T09:39:40.096Z,29.84
2022-12-23T09:42:34.588Z,29.84
2022-12-23T09:45:17.561Z,29.75
2022-12-23T09:47:48.184Z,29.86
2022-12-23T09:50:32.024Z,29.81
2022-12-23T09:53:23.074Z,29.73
2022-12-23T09:55:59.567Z,29.74
2022-12-23T09:58:49.830Z,29.66
2022-12-23T10:01:45.035Z,29.74
2022-12-23T10:04:25.170Z,29.74
2022-12-23T10:07:07.262Z,29.68
2022-12-23T10:09:40.789Z,29.67
2022-12-23T10:12:39.089Z,29.71
2022-12-23T10:15:22.554Z,29.76
2022-12-23T10:17:56.078Z,29.74
2022-12-23T10:20:41.618Z,29.71
2022-12-23T10:23:18.291Z,29.64
2022-12-23T10:25:52.824Z,29.61
2022-12-23T10:28:24.844Z,29.70
2022-12-23T10:31:30.867Z,29.76
2022-12-23T10:34:36.610Z,29.79
2022-12-23T10:37:18.868Z,29.78
2022-12-23T10:40:27.680Z,29.78
2022-12-23T10:43:00.547Z,29.75
2022-12-23T10:45:31.911Z,29.71
2022-12-23T10:48:23.467Z,29.69
2022-12-23T10:51:04.896Z,29.66
2022-12-23T10:54:04.358Z,29.60
2022-12-23T10:56:35.232Z,29.57
2022-12-23T10:59:09.034Z,29.56
2022-12-23T11:01:40.975Z,29.52
2022-12-23T11:04:22.524Z,29.51
2022-12-23T11:07:18.276Z,29.51
2022-12-23T11:10:06.312Z,29.51
2022-12-23T11:12:45.255Z,29.52
2022-12-23T11:15:39.367Z,29.46
2022-12-23T11:18:13.745Z,29.45
2022-12-23T11:20:46.677Z,29.45
2022-12-23T11:23:31.641Z,29.45
2022-12-23T11:26:05.350Z,29.42
2022-12-23T11:28:39.645Z,29.42
2022-12-23T11:31:15.347Z,29.40
2022-12-23T11:33:57.376Z,29.34
2022-12-23T11:36:29.858Z,29.38
2022-12-23T11:39:08.312Z,29.41
2022-12-23T11:41:45.372Z,29.39
2022-12-23T11:44:28.082Z,29.35
2022-12-23T11:47:00.351Z,29.32
2022-12-23T11:49:32.784Z,29.27
2022-12-23T11:52:11.295Z,29.28
2022-12-23T11:54:42.289Z,29.29
2022-12-23T11:57:20.119Z,29.29
2022-12-23T11:59:51.881Z,29.28
2022-12-23T12:02:42.768Z,29.20
2022-12-23T12:05:29.382Z,29.35
2022-12-23T12:08:05.468Z,29.42
2022-12-23T12:10:36.969Z,29.47
2022-12-23T12:13:10.573Z,29.51
2022-12-23T12:16:04.297Z,29.52
2022-12-23T12:18:35.845Z,29.58
2022-12-23T12:21:13.811Z,29.66
2022-12-23T12:23:55.472Z,29.71
2022-12-23T12:26:40.830Z,29.71
2022-12-23T12:29:31.371Z,29.72
2022-12-23T12:32:03.575Z,29.77
2022-12-23T12:34:42.965Z,29.80
2022-12-23T12:37:21.885Z,29.79
2022-12-23T12:40:13.012Z,29.75
2022-12-23T12:42:45.741Z,29.78
2022-12-23T12:45:57.628Z,29.81
2022-12-23T12:48:59.839Z,29.79
2022-12-23T12:51:49.859Z,29.81
2022-12-23T12:55:02.288Z,29.77
2022-12-23T12:57:38.177Z,29.74
2022-12-23T13:00:25.555Z,29.75
2022-12-23T13:03:13.404Z,29.78
2022-12-23T13:06:14.385Z,29.78
2022-12-23T13:09:07.016Z,29.75
2022-12-23T13:12:09.229Z,29.81
2022-12-23T13:15:00.288Z,29.74
2022-12-23T13:17:37.659Z,29.71
2022-12-23T13:20:38.278Z,29.73
2022-12-23T13:23:42.869Z,29.74
2022-12-23T13:26:35.023Z,29.70
2022-12-23T13:29:29.038Z,29.64
2022-12-23T13:32:17.749Z,29.54
2022-12-23T13:34:53.533Z,29.52
2022-12-23T13:37:45.177Z,29.49
2022-12-23T13:40:38.400Z,29.46
2022-12-23T13:43:17.739Z,29.43
2022-12-23T13:45:49.388Z,29.32
2022-12-23T13:48:53.949Z,29.38
2022-12-23T13:52:01.250Z,29.38
2022-12-23T13:54:37.145Z,29.27
2022-12-23T13:57:41.089Z,29.27
2022-12-23T14:00:23.062Z,29.23
2022-12-23T14:02:54.698Z,29.30
2022-12-23T14:05:48.128Z,29.30
2022-12-23T14:08:22.127Z,29.24
2022-12-23T14:11:02.246Z,29.22
2022-12-23T14:13:42.371Z,29.28
2022-12-23T14:16:17.781Z,29.31
2022-12-23T14:19:02.845Z,29.31
2022-12-23T14:21:42.437Z,29.24
2022-12-23T14:24:30.906Z,29.27
2022-12-23T14:27:22.891Z,29.22
2022-12-23T14:30:11.819Z,29.21
2022-12-23T14:33:03.832Z,29.20
2022-12-23T14:35:42.865Z,29.11
2022-12-23T14:38:17.002Z,29.09
2022-12-23T14:40:52.592Z,29.08
2022-12-23T14:43:52.344Z,29.13
2022-12-23T14:46:51.462Z,29.12
2022-12-23T14:49:45.561Z,29.18
2022-12-23T14:52:51.943Z,29.18
2022-12-23T14:55:31.596Z,29.13
2022-12-23T14:58:25.893Z,29.11
2022-12-23T15:01:04.733Z,29.10
2022-12-23T15:03:41.661Z,29.07
2022-12-23T15:06:44.473Z,29.14
2022-12-23T15:09:55.711Z,29.13
2022-12-23T15:12:35.783Z,29.11
2022-12-23T15:15:27.104Z,29.10
2022-12-23T15:18:11.189Z,29.07
2022-12-23T15:20:41.876Z,28.99
2022-12-23T15:23:15.844Z,28.96
2022-12-23T15:25:47.915Z,28.94
2022-12-23T15:28:26.245Z,28.92
2022-12-23T15:30:58.149Z,28.95
2022-12-23T15:36:29.474Z,28.96
2022-12-23T15:39:01.614Z,28.91
2022-12-23T15:41:32.824Z,28.94
2022-12-23T15:44:11.049Z,28.97
2022-12-23T15:46:42.757Z,28.95
2022-12-23T15:49:14.467Z,28.92
2022-12-23T15:52:07.237Z,28.95
2022-12-23T15:54:59.325Z,28.94
2022-12-23T15:57:31.233Z,28.95
2022-12-23T16:00:02.477Z,28.97
2022-12-23T16:03:02.175Z,28.93
2022-12-23T16:05:38.479Z,28.94
2022-12-23T16:08:21.797Z,28.97
2022-12-23T16:11:08.503Z,28.92
2022-12-23T16:13:43.124Z,28.92
2022-12-23T16:16:43.735Z,28.97
2022-12-23T16:19:48.949Z,28.92
2022-12-23T16:22:22.626Z,28.91
2022-12-23T16:25:16.010Z,28.94
2022-12-23T16:27:50.229Z,28.89
2022-12-23T16:30:27.348Z,28.91
2022-12-23T16:33:08.873Z,28.93
2022-12-23T16:35:42.099Z,28.90
2022-12-23T16:38:26.154Z,28.91
2022-12-23T16:40:58.391Z,28.89
2022-12-23T16:43:29.300Z,28.88
2022-12-23T16:46:00.836Z,28.87
2022-12-23T16:48:44.772Z,28.85
2022-12-23T16:51:17.992Z,28.86
2022-12-23T16:53:56.212Z,28.81
2022-12-23T16:56:30.217Z,28.80
2022-12-23T16:59:00.766Z,28.79
2022-12-23T17:01:40.273Z,28.79
2022-12-23T17:04:11.486Z,28.77
2022-12-23T17:06:42.555Z,28.80
2022-12-23T17:09:13.287Z,28.76
2022-12-23T17:11:49.633Z,28.63
2022-12-23T17:14:25.157Z,28.59
2022-12-23T17:16:55.825Z,28.64
2022-12-23T17:19:29.177Z,28.54
2022-12-23T17:22:03.252Z,28.55
2022-12-23T17:24:33.768Z,28.53
2022-12-23T17:27:06.534Z,28.46
2022-12-23T17:29:37.387Z,28.48
2022-12-23T17:32:13.483Z,28.43
2022-12-23T17:34:44.290Z,28.42
2022-12-23T17:37:17.327Z,28.34
2022-12-23T17:39:48.690Z,28.43
2022-12-23T17:42:25.812Z,28.39
2022-12-23T17:44:57.606Z,28.38
2022-12-23T17:47:29.183Z,28.29
2022-12-23T17:49:59.510Z,28.30
2022-12-23T17:52:30.280Z,28.31
2022-12-23T17:55:01.255Z,28.32
2022-12-23T17:57:32.707Z,28.32
2022-12-23T18:00:03.082Z,28.34
2022-12-23T18:02:42.514Z,28.30
2022-12-23T18:05:27.789Z,28.32
2022-12-23T18:08:00.578Z,28.22
2022-12-23T18:10:38.531Z,28.29
2022-12-23T18:13:14.963Z,28.24
2022-12-23T18:15:46.740Z,28.27
2022-12-23T18:18:28.565Z,28.28
2022-12-23T18:21:01.605Z,28.24
2022-12-23T18:23:34.857Z,28.21
2022-12-23T18:26:09.020Z,28.17
2022-12-23T18:28:42.834Z,28.18
2022-12-23T18:31:22.830Z,28.10
2022-12-23T18:33:53.517Z,28.17
2022-12-23T18:36:31.275Z,28.18
2022-12-23T18:39:01.959Z,28.21
2022-12-23T18:41:33.112Z,28.20
2022-12-23T18:44:04.226Z,28.18
2022-12-23T18:46:35.343Z,28.17
2022-12-23T18:49:05.856Z,28.21
2022-12-23T18:51:36.674Z,28.15
2022-12-23T18:54:07.983Z,28.15
2022-12-23T18:56:39.006Z,28.13
2022-12-23T18:59:17.274Z,28.17
2022-12-23T19:01:48.075Z,28.12
2022-12-23T19:04:18.835Z,28.13
2022-12-23T19:06:49.357Z,28.01
2022-12-23T19:09:21.819Z,28.04
2022-12-23T19:11:54.545Z,28.01
2022-12-23T19:14:25.195Z,27.91
2022-12-23T19:17:00.892Z,27.95
2022-12-23T19:19:31.647Z,28.02
2022-12-23T19:22:03.270Z,28.00
2022-12-23T19:24:34.156Z,27.90
2022-12-23T19:27:07.786Z,27.92
2022-12-23T19:29:38.672Z,27.96
2022-12-23T19:32:09.478Z,27.92
2022-12-23T19:34:40.177Z,27.93
2022-12-23T19:37:11.039Z,27.96
2022-12-23T19:39:42.365Z,27.91
2022-12-23T19:42:12.918Z,27.90
2022-12-23T19:44:43.413Z,27.84
2022-12-23T19:47:13.989Z,27.89
2022-12-23T19:49:44.381Z,27.86
2022-12-23T19:52:15.041Z,27.94
2022-12-23T19:54:46.262Z,27.91
2022-12-23T19:57:16.892Z,27.90
2022-12-23T19:59:48.143Z,27.90
2022-12-23T20:02:20.940Z,27.88
2022-12-23T20:04:51.521Z,27.88
2022-12-23T20:07:22.043Z,27.77
2022-12-23T20:09:53.332Z,27.81
2022-12-23T20:12:24.519Z,27.82
2022-12-23T20:14:57.921Z,27.80
2022-12-23T20:17:28.465Z,27.71
2022-12-23T20:19:59.117Z,27.75
2022-12-23T20:22:32.577Z,27.78
2022-12-23T20:25:06.354Z,27.74
2022-12-23T20:27:39.678Z,27.65
2022-12-23T20:30:11.333Z,27.73
2022-12-23T20:32:41.831Z,27.71
2022-12-23T20:35:13.509Z,27.69
2022-12-23T20:37:45.165Z,27.67
2022-12-23T20:40:18.426Z,27.63
2022-12-23T20:42:48.692Z,27.63
2022-12-23T20:45:19.330Z,27.61
2022-12-23T20:47:49.892Z,27.62
2022-12-23T20:50:20.628Z,27.65
2022-12-23T20:52:51.727Z,27.63
2022-12-23T20:55:22.127Z,27.61
2022-12-23T20:57:52.544Z,27.62
2022-12-23T21:00:23.006Z,27.58
2022-12-23T21:02:53.620Z,27.56
2022-12-23T21:05:24.200Z,27.54
2022-12-23T21:07:54.806Z,27.62
2022-12-23T21:10:24.888Z,27.54
2022-12-23T21:12:55.806Z,27.52
2022-12-23T21:15:26.663Z,27.55
2022-12-23T21:17:57.604Z,27.54
2022-12-23T21:20:28.751Z,27.55
2022-12-23T21:23:00.229Z,27.53
2022-12-23T21:25:30.813Z,27.52
2022-12-23T21:28:01.158Z,27.56
2022-12-23T21:30:35.123Z,27.61
2022-12-23T21:33:14.824Z,27.62
2022-12-23T21:35:45.371Z,27.59
2022-12-23T21:38:16.867Z,27.61
2022-12-23T21:40:50.710Z,27.62
2022-12-23T21:43:23.918Z,27.59
2022-12-23T21:45:59.136Z,27.61
2022-12-23T21:48:32.169Z,27.55
2022-12-23T21:51:19.986Z,27.55
2022-12-23T21:53:53.354Z,27.49
2022-12-23T21:56:27.402Z,27.53
2022-12-23T21:59:00.114Z,27.49
2022-12-23T22:01:34.115Z,27.51
2022-12-23T22:04:04.746Z,27.46
2022-12-23T22:06:43.031Z,27.51
2022-12-23T22:09:20.527Z,27.53
2022-12-23T22:11:52.523Z,27.48
2022-12-23T22:14:23.877Z,27.52
2022-12-23T22:16:54.556Z,27.53
2022-12-23T22:19:25.347Z,27.48
2022-12-23T22:21:55.742Z,27.49
2022-12-23T22:24:26.227Z,27.47
2022-12-23T22:26:56.825Z,27.51
2022-12-23T22:29:27.426Z,27.50
2022-12-23T22:31:58.326Z,27.47
2022-12-23T22:34:29.314Z,27.47
2022-12-23T22:37:02.581Z,27.47
2022-12-23T22:39:33.418Z,27.49
2022-12-23T22:42:04.319Z,27.51
2022-12-23T22:44:35.413Z,27.55
2022-12-23T22:47:05.751Z,27.55
2022-12-23T22:49:36.284Z,27.51
2022-12-23T22:52:08.047Z,27.49
2022-12-23T22:54:38.610Z,27.45
2022-12-23T22:57:09.183Z,27.44
2022-12-23T22:59:39.734Z,27.41
2022-12-23T23:02:10.446Z,27.44
2022-12-23T23:04:40.999Z,27.44
2022-12-23T23:07:11.627Z,27.42
2022-12-23T23:09:42.642Z,27.40
2022-12-23T23:12:13.800Z,27.41
2022-12-23T23:15:01.911Z,27.28
2022-12-23T23:17:33.292Z,27.34
2022-12-23T23:20:06.381Z,27.39
2022-12-23T23:22:40.199Z,27.30
2022-12-23T23:25:11.366Z,27.41
2022-12-23T23:27:41.617Z,27.40
2022-12-23T23:30:12.574Z,27.39
2022-12-23T23:32:43.164Z,27.31
2022-12-23T23:35:14.143Z,27.35
2022-12-23T23:37:45.011Z,27.42
2022-12-23T23:40:17.277Z,27.51
2022-12-23T23:42:48.293Z,27.62
2022-12-23T23:45:22.334Z,27.67
2022-12-23T23:47:53.000Z,27.67
2022-12-23T23:50:26.268Z,27.69
2022-12-23T23:52:58.336Z,27.70
2022-12-23T23:55:29.405Z,27.67
2022-12-23T23:57:59.852Z,27.72
